Time;durP1;ratioP1;P1;durP2;ratioP2;P2;SDS_P1;SDS_P2;PMS_P1;PMS_P2;Temp;Humidity;BMP_temperature;BMP_pressure;BME280_temperature;BME280_humidity;BME280_pressure;Samples;Min_cycle;Max_cycle;Signal;HPM_P1;HPM_P2
2022/08/20 00:00:13;;;;;;;15.67;12.70;;;21.60;99.90;;;;;;5035853;28;20477;-81
2022/08/20 00:02:42;;;;;;;18.07;13.50;;;21.60;99.90;;;;;;5022022;28;20516;-81
2022/08/20 00:05:10;;;;;;;18.27;12.77;;;21.60;99.90;;;;;;5003035;28;21008;-82
2022/08/20 00:07:37;;;;;;;18.27;13.67;;;21.60;99.90;;;;;;5005388;28;20900;-82
2022/08/20 00:10:06;;;;;;;18.27;14.63;;;21.60;99.90;;;;;;5053478;22;20645;-83
2022/08/20 00:12:33;;;;;;;21.33;13.90;;;21.50;99.90;;;;;;5072873;28;20645;-81
2022/08/20 00:15:00;;;;;;;22.40;16.43;;;21.60;99.90;;;;;;5071637;28;20472;-82
2022/08/20 00:17:30;;;;;;;20.23;13.73;;;21.60;99.90;;;;;;5073185;28;20483;-82
2022/08/20 00:19:57;;;;;;;21.33;14.77;;;21.50;99.90;;;;;;5073981;28;20468;-83
2022/08/20 00:22:26;;;;;;;24.87;18.07;;;21.50;99.90;;;;;;5072347;28;20480;-82
2022/08/20 00:24:53;;;;;;;19.60;14.27;;;21.50;99.90;;;;;;5070606;28;20455;-83
2022/08/20 00:27:21;;;;;;;22.03;15.00;;;21.50;99.90;;;;;;5071433;28;20951;-83
2022/08/20 00:29:48;;;;;;;20.47;16.40;;;21.50;99.90;;;;;;5071401;28;20432;-83
2022/08/20 00:32:15;;;;;;;28.77;21.13;;;21.50;99.90;;;;;;5068327;28;20451;-84
2022/08/20 00:34:42;;;;;;;23.07;17.00;;;21.40;99.90;;;;;;5063723;28;20596;-84
2022/08/20 00:37:09;;;;;;;17.90;15.70;;;21.40;99.90;;;;;;5069489;28;20451;-83
2022/08/20 00:39:36;;;;;;;20.07;16.77;;;21.30;99.90;;;;;;5066186;28;20479;-83
2022/08/20 00:42:04;;;;;;;24.03;17.33;;;21.30;99.90;;;;;;5050725;28;20492;-84
2022/08/20 00:44:33;;;;;;;24.27;19.60;;;21.20;99.90;;;;;;5054454;28;20471;-83
2022/08/20 00:47:00;;;;;;;18.90;16.30;;;21.10;99.90;;;;;;5065586;28;20503;-83
2022/08/20 00:49:30;;;;;;;21.47;17.40;;;21.10;99.90;;;;;;5068053;28;20684;-83
2022/08/20 00:52:01;;;;;;;24.93;18.50;;;21.00;99.90;;;;;;5068490;28;20538;-83
2022/08/20 00:54:33;;;;;;;19.50;16.20;;;21.00;99.90;;;;;;5067450;28;20480;-83
2022/08/20 00:57:04;;;;;;;21.00;15.47;;;21.00;99.90;;;;;;5068053;28;20487;-83
2022/08/20 00:59:36;;;;;;;19.60;16.20;;;21.00;99.90;;;;;;5069447;28;20452;-83
2022/08/20 01:02:06;;;;;;;21.80;16.90;;;21.00;99.90;;;;;;5069518;28;20479;-83
2022/08/20 01:04:34;;;;;;;30.50;21.60;;;21.00;99.90;;;;;;5068301;28;20456;-83
2022/08/20 01:07:04;;;;;;;23.27;17.67;;;20.90;99.90;;;;;;5069862;28;20500;-83
2022/08/20 01:09:31;;;;;;;22.80;19.23;;;20.90;99.90;;;;;;5069013;28;20456;-83
2022/08/20 01:11:58;;;;;;;21.47;17.87;;;20.90;99.90;;;;;;5068606;28;20540;-83
2022/08/20 01:14:30;;;;;;;20.53;16.63;;;20.90;99.90;;;;;;5063706;28;20991;-83
2022/08/20 01:17:02;;;;;;;20.00;16.23;;;20.90;99.90;;;;;;5060218;28;20481;-83
2022/08/20 01:19:33;;;;;;;19.77;16.53;;;20.90;99.90;;;;;;5070431;28;20524;-83
2022/08/20 01:23:25;;;;;;;19.83;16.50;;;20.90;99.90;;;;;;5072309;28;20472;-83
2022/08/20 01:24:51;;;;;;;21.03;18.77;;;21.00;99.90;;;;;;5056210;28;20432;-83
2022/08/20 01:27:19;;;;;;;20.83;17.30;;;20.90;99.90;;;;;;5072958;28;20443;-83
2022/08/20 01:29:47;;;;;;;20.70;17.27;;;20.90;99.90;;;;;;5072712;28;20490;-83
2022/08/20 01:32:14;;;;;;;21.97;18.60;;;21.00;99.90;;;;;;5074436;28;20476;-83
2022/08/20 01:34:40;;;;;;;24.93;17.47;;;21.00;99.90;;;;;;5072400;28;20482;-83
2022/08/20 01:37:07;;;;;;;23.83;19.50;;;20.90;99.90;;;;;;5073809;28;20985;-83
2022/08/20 01:39:36;;;;;;;22.03;17.53;;;20.90;99.90;;;;;;5074085;28;20440;-82
2022/08/20 01:42:08;;;;;;;23.30;18.80;;;21.00;99.90;;;;;;5075405;28;20739;-82
2022/08/20 01:44:38;;;;;;;20.73;17.83;;;21.00;99.90;;;;;;5078438;28;20447;-83
2022/08/20 01:47:15;;;;;;;17.10;15.33;;;21.00;99.90;;;;;;5053946;28;20484;-83
2022/08/20 01:49:45;;;;;;;20.73;18.70;;;21.00;99.90;;;;;;5064707;28;20447;-83
2022/08/20 01:52:19;;;;;;;19.40;15.90;;;21.00;99.90;;;;;;5074502;28;20436;-82
2022/08/20 01:54:46;;;;;;;18.33;16.40;;;21.10;99.90;;;;;;5072973;28;20475;-82
2022/08/20 01:57:15;;;;;;;22.70;15.53;;;21.10;99.90;;;;;;5074309;28;20519;-83
2022/08/20 01:59:43;;;;;;;17.70;15.90;;;21.10;99.90;;;;;;5073455;28;20456;-83
2022/08/20 02:02:11;;;;;;;17.27;15.07;;;21.20;99.90;;;;;;5075151;28;20456;-82
2022/08/20 02:04:39;;;;;;;17.10;14.90;;;21.20;99.90;;;;;;5073097;28;20456;-82
2022/08/20 02:07:08;;;;;;;17.57;15.63;;;21.20;99.90;;;;;;5074523;28;20470;-83
2022/08/20 02:09:38;;;;;;;18.47;15.30;;;21.20;99.90;;;;;;5074144;28;20460;-83
2022/08/20 02:12:07;;;;;;;17.10;14.53;;;21.20;99.90;;;;;;5075458;28;20474;-83
2022/08/20 02:14:35;;;;;;;17.03;15.20;;;21.20;99.90;;;;;;5073323;28;20440;-83
2022/08/20 02:17:05;;;;;;;17.93;14.37;;;21.30;99.90;;;;;;5073102;28;20511;-83
2022/08/20 02:19:37;;;;;;;17.27;15.37;;;21.30;99.90;;;;;;5073322;28;20455;-83
2022/08/20 02:22:12;;;;;;;16.37;13.73;;;21.20;99.90;;;;;;5073998;28;20455;-83
2022/08/20 02:24:39;;;;;;;17.17;15.47;;;21.20;99.90;;;;;;5072348;28;20471;-83
2022/08/20 02:27:06;;;;;;;19.97;16.80;;;21.30;99.90;;;;;;5073261;28;20444;-84
2022/08/20 02:29:33;;;;;;;17.57;15.53;;;21.30;99.90;;;;;;5072828;28;20444;-83
2022/08/20 02:32:00;;;;;;;18.23;15.77;;;21.30;99.90;;;;;;5073619;28;20521;-82
2022/08/20 02:34:28;;;;;;;15.83;14.10;;;21.30;99.90;;;;;;5071743;28;20452;-82
2022/08/20 02:36:55;;;;;;;18.90;14.80;;;21.30;99.90;;;;;;5073131;28;20444;-82
2022/08/20 02:39:22;;;;;;;17.80;15.47;;;21.30;99.90;;;;;;5073458;28;20818;-83
2022/08/20 02:41:49;;;;;;;16.80;15.00;;;21.30;99.90;;;;;;5072890;28;20480;-82
2022/08/20 02:44:19;;;;;;;16.97;13.93;;;21.30;99.90;;;;;;5071247;28;20468;-83
2022/08/20 02:46:48;;;;;;;14.47;12.83;;;21.30;99.90;;;;;;5058480;28;20523;-82
2022/08/20 02:49:16;;;;;;;16.10;14.10;;;21.30;99.90;;;;;;5073256;28;20933;-83
2022/08/20 02:51:45;;;;;;;15.97;14.30;;;21.20;99.90;;;;;;5073075;28;20495;-82
2022/08/20 02:54:12;;;;;;;16.73;13.50;;;21.20;99.90;;;;;;5072139;28;20447;-83
2022/08/20 02:56:39;;;;;;;17.40;15.00;;;21.20;99.90;;;;;;5072751;28;20503;-83
2022/08/20 02:59:06;;;;;;;18.00;16.20;;;21.20;99.90;;;;;;5071834;28;20508;-84
2022/08/20 03:01:35;;;;;;;15.77;14.13;;;21.20;99.90;;;;;;5072620;28;20846;-84
2022/08/20 03:04:02;;;;;;;19.70;16.03;;;21.20;99.90;;;;;;5071595;28;20495;-84
2022/08/20 03:06:30;;;;;;;16.43;14.00;;;21.10;99.90;;;;;;5076291;28;20487;-83
2022/08/20 03:08:58;;;;;;;16.03;14.30;;;21.20;99.90;;;;;;5072569;28;20498;-83
2022/08/20 03:11:25;;;;;;;16.90;14.53;;;21.20;99.90;;;;;;5070920;28;20463;-83
2022/08/20 03:13:52;;;;;;;17.93;15.87;;;21.20;99.90;;;;;;5070523;28;20459;-83
2022/08/20 03:16:19;;;;;;;15.60;13.03;;;21.10;99.90;;;;;;5072080;28;20523;-83
2022/08/20 03:18:47;;;;;;;16.60;14.77;;;21.10;99.90;;;;;;5072717;28;20463;-83
2022/08/20 03:21:14;;;;;;;18.53;15.47;;;21.10;99.90;;;;;;5071318;28;20468;-84
2022/08/20 03:23:41;;;;;;;18.27;15.70;;;21.10;99.90;;;;;;5070582;28;20520;-84
2022/08/20 03:26:12;;;;;;;15.97;13.80;;;21.10;99.90;;;;;;5071278;28;20479;-82
2022/08/20 03:28:39;;;;;;;16.13;13.40;;;21.10;99.90;;;;;;5071793;28;20476;-84
2022/08/20 03:31:07;;;;;;;17.00;14.40;;;21.10;99.90;;;;;;5071410;28;20486;-83
2022/08/20 03:33:34;;;;;;;19.63;15.87;;;21.10;99.90;;;;;;5070885;28;20543;-83
2022/08/20 03:36:01;;;;;;;18.87;15.53;;;21.00;99.90;;;;;;5071898;28;20519;-83
2022/08/20 03:38:28;;;;;;;19.80;16.20;;;21.00;99.90;;;;;;5072129;28;20456;-84
2022/08/20 03:40:54;;;;;;;16.23;14.53;;;21.00;99.90;;;;;;5075613;28;20456;-84
2022/08/20 03:43:23;;;;;;;18.03;15.20;;;21.00;99.90;;;;;;5073056;28;20507;-84
2022/08/20 03:45:51;;;;;;;17.73;14.13;;;20.90;99.90;;;;;;5071794;28;20475;-83
2022/08/20 03:48:20;;;;;;;15.73;13.97;;;20.90;99.90;;;;;;5071464;28;20463;-83
2022/08/20 03:50:49;;;;;;;16.00;14.30;;;20.90;99.90;;;;;;5071629;28;20478;-83
2022/08/20 03:53:17;;;;;;;17.03;14.90;;;20.90;99.90;;;;;;5070954;28;20463;-82
2022/08/20 03:55:46;;;;;;;16.67;14.77;;;20.90;99.90;;;;;;5070803;28;20495;-84
2022/08/20 03:58:14;;;;;;;20.23;15.07;;;20.90;99.90;;;;;;5071287;28;20478;-83
2022/08/20 04:00:45;;;;;;;19.83;15.37;;;20.90;99.90;;;;;;5071059;28;20475;-84
2022/08/20 04:03:12;;;;;;;20.00;15.10;;;20.90;99.90;;;;;;5069692;28;21214;-83
2022/08/20 04:05:40;;;;;;;18.30;14.93;;;20.90;99.90;;;;;;5071351;28;20444;-84
2022/08/20 04:08:09;;;;;;;23.73;16.27;;;20.90;99.90;;;;;;5070093;28;20480;-84
2022/08/20 04:10:37;;;;;;;16.67;14.17;;;20.90;99.90;;;;;;5070511;28;21240;-84
2022/08/20 04:13:05;;;;;;;21.33;17.57;;;20.90;99.90;;;;;;5070381;28;20755;-84
2022/08/20 04:15:34;;;;;;;18.20;15.33;;;20.90;99.90;;;;;;5069863;28;20541;-84
2022/08/20 04:18:06;;;;;;;18.03;14.67;;;20.90;99.90;;;;;;5070236;28;20452;-84
2022/08/20 04:20:34;;;;;;;19.07;15.37;;;20.90;99.90;;;;;;5069522;28;20486;-84
2022/08/20 04:23:01;;;;;;;18.40;14.77;;;20.90;99.90;;;;;;5065880;28;20449;-84
2022/08/20 04:25:30;;;;;;;16.67;12.53;;;20.90;99.90;;;;;;5066648;28;20476;-86
2022/08/20 04:27:57;;;;;;;16.63;12.90;;;20.80;99.90;;;;;;5070348;28;20530;-85
2022/08/20 04:30:25;;;;;;;17.63;13.00;;;20.80;99.90;;;;;;5069418;28;20474;-84
2022/08/20 04:32:52;;;;;;;16.00;13.93;;;20.80;99.90;;;;;;5066675;28;20767;-83
2022/08/20 04:35:23;;;;;;;17.17;14.67;;;20.80;99.90;;;;;;5069399;28;20463;-83
2022/08/20 04:37:57;;;;;;;14.67;12.80;;;20.70;99.90;;;;;;5070081;28;20464;-84
2022/08/20 04:43:08;;;;;;;15.30;12.50;;;20.60;99.90;;;;;;5069156;28;20470;-84
2022/08/20 04:45:35;;;;;;;16.57;13.23;;;20.70;99.90;;;;;;5069162;28;20452;-84
2022/08/20 04:48:04;;;;;;;15.50;12.30;;;20.70;99.90;;;;;;5069672;28;20451;-84
2022/08/20 04:50:35;;;;;;;14.70;12.80;;;20.70;99.90;;;;;;5070511;28;20471;-84
2022/08/20 04:53:02;;;;;;;13.43;12.03;;;20.70;99.90;;;;;;5068385;28;20428;-83
2022/08/20 04:55:29;;;;;;;16.33;13.13;;;20.60;99.90;;;;;;5068480;28;20520;-84
2022/08/20 04:57:58;;;;;;;14.03;12.07;;;20.70;99.90;;;;;;5069412;28;20507;-84
2022/08/20 05:00:25;;;;;;;13.40;11.57;;;20.70;99.90;;;;;;5069361;28;20880;-84
2022/08/20 05:02:52;;;;;;;14.77;12.17;;;20.70;99.90;;;;;;5068290;28;20455;-85
2022/08/20 05:05:20;;;;;;;13.73;11.30;;;20.70;99.90;;;;;;5068423;28;20476;-83
2022/08/20 05:07:48;;;;;;;12.93;11.53;;;20.80;99.90;;;;;;5070159;28;20443;-84
2022/08/20 05:10:17;;;;;;;12.80;11.07;;;20.70;99.90;;;;;;5069043;28;20486;-83
2022/08/20 05:12:44;;;;;;;16.17;13.40;;;20.80;99.90;;;;;;5070017;28;20872;-86
2022/08/20 05:15:13;;;;;;;16.37;12.43;;;20.80;99.90;;;;;;5070102;28;20496;-82
2022/08/20 05:17:41;;;;;;;16.50;13.77;;;20.80;99.90;;;;;;5069368;28;20499;-84
2022/08/20 05:20:11;;;;;;;16.90;13.60;;;20.90;99.90;;;;;;5069099;28;20506;-86
2022/08/20 05:22:38;;;;;;;14.07;12.33;;;20.90;99.90;;;;;;5070692;28;20467;-83
2022/08/20 05:25:07;;;;;;;19.37;14.90;;;20.90;99.90;;;;;;5069348;28;20452;-83
2022/08/20 05:27:34;;;;;;;16.90;14.47;;;21.00;99.90;;;;;;5070069;28;20448;-85
2022/08/20 05:30:06;;;;;;;18.87;13.77;;;21.00;99.90;;;;;;5069075;28;20479;-82
2022/08/20 05:32:34;;;;;;;14.93;12.53;;;21.00;99.90;;;;;;5069927;28;20459;-83
2022/08/20 05:35:01;;;;;;;17.27;13.30;;;21.10;99.90;;;;;;5071819;28;20448;-84
2022/08/20 05:37:28;;;;;;;16.80;13.27;;;21.10;99.90;;;;;;5075549;28;20510;-86
2022/08/20 05:39:55;;;;;;;21.30;15.63;;;21.20;99.90;;;;;;5072838;28;20479;-83
2022/08/20 05:42:28;;;;;;;15.93;13.03;;;21.20;99.90;;;;;;5051996;28;20527;-84
2022/08/20 05:44:55;;;;;;;17.33;14.07;;;21.20;99.90;;;;;;5049925;28;20461;-85
2022/08/20 05:47:27;;;;;;;20.43;14.73;;;21.20;99.90;;;;;;5044631;28;20547;-83
2022/08/20 05:49:54;;;;;;;16.80;13.13;;;21.20;99.90;;;;;;5051026;28;20453;-85
2022/08/20 05:52:21;;;;;;;25.37;16.93;;;21.20;99.90;;;;;;5053121;28;20453;-85
2022/08/20 05:54:48;;;;;;;19.40;14.30;;;21.10;99.90;;;;;;5048006;28;20459;-84
2022/08/20 05:57:18;;;;;;;25.63;18.20;;;21.10;99.90;;;;;;5057094;28;20499;-85
2022/08/20 05:59:46;;;;;;;23.97;17.90;;;21.00;99.90;;;;;;5059700;28;20455;-85
2022/08/20 06:04:54;;;;;;;25.73;17.00;;;21.00;99.90;;;;;;5054046;28;20475;-86
2022/08/20 06:07:21;;;;;;;19.77;16.30;;;21.00;99.90;;;;;;5063040;28;20459;-84
2022/08/20 06:09:49;;;;;;;19.07;15.37;;;21.00;99.90;;;;;;5050913;28;20875;-84
2022/08/20 06:12:16;;;;;;;19.50;15.40;;;21.00;99.90;;;;;;5060624;28;20520;-81
2022/08/20 06:14:46;;;;;;;18.00;14.97;;;20.90;99.90;;;;;;5061026;28;20835;-84
2022/08/20 06:17:16;;;;;;;16.43;14.23;;;20.90;99.90;;;;;;5051641;28;20493;-83
2022/08/20 06:19:44;;;;;;;21.10;15.37;;;20.90;99.90;;;;;;5054648;28;21001;-84
2022/08/20 06:26:08;;;;;;;;;;;;;;;;;;;;;
2022/08/20 06:28:42;;;;;;;17.50;15.10;;;20.90;99.90;;;;;;5045908;28;20543;-83
2022/08/20 06:31:12;;;;;;;22.50;17.67;;;21.00;99.90;;;;;;5062639;28;20483;-85
2022/08/20 06:40:23;;;;;;;18.37;12.67;;;20.90;99.90;;;;;;5016973;28;20456;-84
2022/08/20 06:43:24;;;;;;;17.83;13.47;;;20.90;99.90;;;;;;5051852;28;20451;-83
2022/08/20 06:45:56;;;;;;;15.57;13.50;;;20.90;99.90;;;;;;5055081;28;20525;-85
2022/08/20 06:48:24;;;;;;;19.23;14.50;;;21.00;99.90;;;;;;5059162;28;20456;-86
2022/08/20 06:50:52;;;;;;;19.27;16.00;;;21.00;99.90;;;;;;5062608;28;20471;-83
2022/08/20 06:53:20;;;;;;;16.97;14.23;;;21.10;99.90;;;;;;5042126;28;21449;-83
2022/08/20 06:55:51;;;;;;;22.00;16.30;;;21.10;99.90;;;;;;5052296;28;20486;-84
2022/08/20 06:58:19;;;;;;;15.90;12.50;;;21.10;99.90;;;;;;5109253;22;20540;-79
2022/08/20 07:00:47;;;;;;;18.53;14.90;;;21.20;99.90;;;;;;5060995;28;20533;-78
2022/08/20 07:03:15;;;;;;;20.30;16.40;;;21.20;99.90;;;;;;5068168;28;20451;-78
2022/08/20 07:05:44;;;;;;;19.97;17.03;;;21.30;99.90;;;;;;5057603;28;20511;-78
2022/08/20 07:08:15;;;;;;;21.00;16.33;;;21.20;99.90;;;;;;5066948;28;20465;-79
2022/08/20 07:10:42;;;;;;;18.77;16.77;;;21.30;99.90;;;;;;5072483;28;20454;-77
2022/08/20 07:13:10;;;;;;;24.63;19.00;;;21.40;99.90;;;;;;5072347;28;20443;-79
2022/08/20 07:15:37;;;;;;;22.00;18.20;;;21.50;99.90;;;;;;5072510;28;20977;-77
2022/08/20 07:18:05;;;;;;;21.20;17.90;;;21.40;99.90;;;;;;5072144;28;20474;-79
2022/08/20 07:20:34;;;;;;;25.87;21.03;;;21.30;99.90;;;;;;5072732;28;20526;-78
2022/08/20 07:23:01;;;;;;;21.60;17.60;;;21.30;99.90;;;;;;5072016;28;20859;-79
2022/08/20 07:25:32;;;;;;;20.67;16.07;;;21.20;99.90;;;;;;5072584;28;20970;-79
2022/08/20 07:28:03;;;;;;;21.43;18.07;;;21.20;99.90;;;;;;5072045;28;20522;-78
2022/08/20 07:33:15;;;;;;;20.13;16.43;;;21.20;99.90;;;;;;5071746;28;20525;-79
2022/08/20 07:35:42;;;;;;;20.00;15.63;;;21.20;99.90;;;;;;5072588;28;20489;-78
2022/08/20 07:38:15;;;;;;;25.20;20.90;;;21.20;99.90;;;;;;5071948;28;21049;-79
2022/08/20 07:40:47;;;;;;;20.50;15.60;;;21.20;99.90;;;;;;5070537;28;20496;-79
2022/08/20 07:43:16;;;;;;;21.60;17.07;;;21.20;99.90;;;;;;5069424;28;20649;-79
2022/08/20 07:45:47;;;;;;;18.80;16.33;;;21.10;99.90;;;;;;5067885;28;20491;-78
2022/08/20 07:48:14;;;;;;;18.00;16.13;;;21.20;99.90;;;;;;5063161;28;20571;-80
2022/08/20 07:50:42;;;;;;;19.90;17.27;;;21.20;99.90;;;;;;5072364;28;20457;-78
2022/08/20 07:53:10;;;;;;;19.30;16.37;;;21.30;99.90;;;;;;5072408;28;20461;-80
2022/08/20 07:55:37;;;;;;;19.10;13.87;;;21.30;99.90;;;;;;5072864;28;20827;-78
2022/08/20 07:58:09;;;;;;;19.90;16.00;;;21.40;99.90;;;;;;5072615;28;21074;-79
2022/08/20 08:00:37;;;;;;;20.00;15.70;;;21.50;99.90;;;;;;5072298;28;20830;-79
2022/08/20 08:03:05;;;;;;;18.67;15.60;;;21.60;99.90;;;;;;5071665;28;20870;-78
2022/08/20 08:05:32;;;;;;;18.03;15.90;;;21.60;99.90;;;;;;5072017;28;20451;-78
2022/08/20 08:07:59;;;;;;;16.80;14.57;;;21.70;99.90;;;;;;5071016;28;20997;-77
2022/08/20 08:10:27;;;;;;;17.17;14.57;;;21.90;99.90;;;;;;5072170;28;20546;-77
2022/08/20 08:12:57;;;;;;;16.30;14.60;;;21.90;99.90;;;;;;5071047;28;20626;-76
2022/08/20 08:15:30;;;;;;;16.90;15.10;;;21.90;99.90;;;;;;5071950;28;20482;-77
2022/08/20 08:18:01;;;;;;;14.17;12.67;;;22.00;99.90;;;;;;5071292;28;20855;-78
2022/08/20 08:20:28;;;;;;;14.40;13.00;;;22.00;99.90;;;;;;5071382;28;21051;-78
2022/08/20 08:22:56;;;;;;;13.57;12.07;;;22.10;99.90;;;;;;5071124;28;20527;-79
2022/08/20 08:25:23;;;;;;;14.63;13.10;;;22.20;99.90;;;;;;5071417;28;20542;-79
2022/08/20 08:27:50;;;;;;;14.03;12.53;;;22.30;99.90;;;;;;5072049;28;20486;-77
2022/08/20 08:30:17;;;;;;;12.87;11.43;;;22.30;99.90;;;;;;5071429;28;20882;-78
2022/08/20 08:35:31;;;;;;;13.03;11.50;;;22.20;99.90;;;;;;5071506;28;20970;-78
2022/08/20 08:38:01;;;;;;;12.80;11.50;;;22.10;99.90;;;;;;5071546;28;20479;-79
2022/08/20 08:40:29;;;;;;;12.97;11.40;;;22.20;99.90;;;;;;5071562;28;20455;-79
2022/08/20 08:42:58;;;;;;;12.20;11.00;;;22.30;99.90;;;;;;5070900;28;20451;-78
2022/08/20 08:45:30;;;;;;;14.83;13.10;;;22.50;99.90;;;;;;5071477;28;20546;-78
2022/08/20 08:47:58;;;;;;;14.23;12.77;;;22.50;99.90;;;;;;5071373;28;20443;-79
2022/08/20 08:50:30;;;;;;;13.50;12.10;;;22.60;99.90;;;;;;5071435;28;20833;-78
2022/08/20 08:52:59;;;;;;;14.87;13.37;;;22.70;99.90;;;;;;5071184;28;20493;-78
2022/08/20 08:55:28;;;;;;;15.23;13.73;;;22.60;99.90;;;;;;5071341;28;20494;-77
2022/08/20 08:57:58;;;;;;;18.83;17.03;;;22.70;99.90;;;;;;5071012;28;20475;-77
2022/08/20 09:00:27;;;;;;;18.20;16.30;;;22.80;99.90;;;;;;5071291;28;20478;-78
2022/08/20 09:02:59;;;;;;;16.90;15.37;;;22.80;99.90;;;;;;5070595;28;20458;-78
2022/08/20 09:05:33;;;;;;;18.90;16.20;;;22.60;99.90;;;;;;5071280;28;20459;-79
2022/08/20 09:08:03;;;;;;;20.17;18.20;;;22.80;99.90;;;;;;5071515;28;20443;-77
2022/08/20 09:10:30;;;;;;;18.47;16.57;;;22.90;99.90;;;;;;5071381;28;20454;-78
2022/08/20 09:12:57;;;;;;;18.83;16.83;;;23.10;99.90;;;;;;5070415;28;20470;-78
2022/08/20 09:15:24;;;;;;;20.40;18.57;;;23.10;99.90;;;;;;5070978;28;20597;-78
2022/08/20 09:17:51;;;;;;;20.30;18.40;;;22.80;99.90;;;;;;5070644;28;20483;-78
2022/08/20 09:20:19;;;;;;;17.77;15.87;;;22.80;99.90;;;;;;5070922;28;20455;-78
2022/08/20 09:22:46;;;;;;;15.40;13.90;;;22.80;99.90;;;;;;5070795;28;20550;-77
2022/08/20 09:25:13;;;;;;;18.43;16.63;;;22.80;99.90;;;;;;5071334;28;20545;-78
2022/08/20 09:27:40;;;;;;;22.10;19.90;;;22.90;99.90;;;;;;5070908;28;20526;-78
2022/08/20 09:30:09;;;;;;;21.57;19.47;;;22.70;99.90;;;;;;5071464;28;20505;-78
2022/08/20 09:32:36;;;;;;;25.17;22.57;;;22.70;99.90;;;;;;5070930;28;20459;-79
2022/08/20 09:35:03;;;;;;;25.83;23.30;;;22.60;99.90;;;;;;5070468;28;20545;-78
2022/08/20 09:37:32;;;;;;;22.37;20.10;;;22.60;99.90;;;;;;5070544;28;20486;-78
2022/08/20 09:40:00;;;;;;;23.83;21.07;;;22.60;99.90;;;;;;5074456;28;20546;-78
2022/08/20 09:42:29;;;;;;;26.20;23.50;;;22.60;99.90;;;;;;5074707;28;20462;-78
2022/08/20 09:44:56;;;;;;;23.87;21.47;;;22.60;99.90;;;;;;5073997;28;21023;-79
2022/08/20 09:47:24;;;;;;;24.97;22.43;;;22.30;99.90;;;;;;5075042;28;20887;-77
2022/08/20 09:49:51;;;;;;;27.63;24.10;;;22.30;99.90;;;;;;5074164;28;21042;-78
2022/08/20 09:52:22;;;;;;;31.30;27.97;;;22.40;99.90;;;;;;5074156;28;20517;-78
2022/08/20 09:54:51;;;;;;;30.93;27.67;;;22.50;99.90;;;;;;5073722;28;20955;-78
2022/08/20 09:57:18;;;;;;;28.70;25.67;;;22.60;99.90;;;;;;5073520;28;20884;-78
2022/08/20 09:59:51;;;;;;;33.40;28.13;;;22.50;99.90;;;;;;5074418;28;20482;-78
2022/08/20 10:02:18;;;;;;;32.93;27.33;;;22.40;99.90;;;;;;5074078;28;20538;-77
2022/08/20 10:04:44;;;;;;;32.43;27.93;;;22.50;99.90;;;;;;5073738;28;20534;-78
2022/08/20 10:07:11;;;;;;;31.27;28.00;;;22.80;99.90;;;;;;5074846;28;20455;-78
2022/08/20 10:09:38;;;;;;;28.80;25.30;;;23.40;99.90;;;;;;5074270;28;20470;-77
2022/08/20 10:12:07;;;;;;;28.93;25.20;;;23.80;99.90;;;;;;5074785;28;20482;-77
2022/08/20 10:14:34;;;;;;;30.60;26.50;;;23.90;99.90;;;;;;5073778;28;20537;-77
2022/08/20 10:17:02;;;;;;;25.53;22.90;;;24.20;99.90;;;;;;5074112;28;20541;-76
2022/08/20 10:19:30;;;;;;;26.60;23.80;;;24.60;99.90;;;;;;5074560;28;20505;-77
2022/08/20 10:21:58;;;;;;;29.30;24.87;;;24.70;99.90;;;;;;5074139;28;20516;-78
2022/08/20 10:24:25;;;;;;;23.53;21.03;;;24.80;99.90;;;;;;5073481;28;20899;-77
2022/08/20 10:26:54;;;;;;;28.60;21.57;;;25.00;99.90;;;;;;5075056;28;20453;-79
2022/08/20 10:29:23;;;;;;;27.83;23.20;;;24.90;99.90;;;;;;5074110;28;20550;-77
2022/08/20 10:31:50;;;;;;;27.73;24.97;;;24.80;99.90;;;;;;5074520;28;20538;-78
2022/08/20 10:34:17;;;;;;;28.07;25.10;;;24.60;99.90;;;;;;5073443;28;20533;-78
2022/08/20 10:36:43;;;;;;;27.10;22.53;;;24.70;99.90;;;;;;5076329;28;20951;-78
2022/08/20 10:39:11;;;;;;;26.73;23.97;;;24.70;99.90;;;;;;5073668;28;20557;-78
2022/08/20 10:41:37;;;;;;;24.33;21.83;;;24.80;99.90;;;;;;5073404;28;21059;-78
2022/08/20 10:44:04;;;;;;;30.00;23.43;;;24.50;99.90;;;;;;5073121;28;20478;-78
2022/08/20 10:46:33;;;;;;;21.80;19.50;;;24.50;99.90;;;;;;5073376;28;20546;-78
2022/08/20 10:49:00;;;;;;;24.23;21.63;;;24.60;99.90;;;;;;5073522;28;20530;-78
2022/08/20 10:51:26;;;;;;;23.90;21.17;;;24.50;99.90;;;;;;5073600;28;20499;-78
2022/08/20 10:53:53;;;;;;;25.30;22.73;;;24.50;99.90;;;;;;5073007;28;20458;-78
2022/08/20 10:56:20;;;;;;;27.47;24.57;;;24.30;99.90;;;;;;5077096;28;20497;-78
2022/08/20 10:58:47;;;;;;;21.53;19.30;;;24.20;99.90;;;;;;5075863;28;20487;-79
2022/08/20 11:01:14;;;;;;;22.80;19.37;;;24.10;99.90;;;;;;5075913;28;20519;-78
2022/08/20 11:03:42;;;;;;;21.43;19.20;;;23.80;99.90;;;;;;5074104;28;20936;-78
2022/08/20 11:06:09;;;;;;;19.07;17.07;;;23.70;99.90;;;;;;5076140;28;20461;-77
2022/08/20 11:08:36;;;;;;;21.20;18.67;;;23.60;99.90;;;;;;5075237;28;20502;-78
2022/08/20 11:11:04;;;;;;;19.33;17.43;;;23.50;99.90;;;;;;5074584;28;21020;-77
2022/08/20 11:13:31;;;;;;;16.97;15.23;;;23.70;99.90;;;;;;5074236;28;20547;-77
2022/08/20 11:15:58;;;;;;;18.27;15.73;;;23.90;99.90;;;;;;5075569;28;20451;-78
2022/08/20 11:18:25;;;;;;;16.93;15.23;;;24.00;99.90;;;;;;5075870;28;20573;-77
2022/08/20 11:20:53;;;;;;;19.17;17.00;;;24.50;99.90;;;;;;5075860;28;20920;-78
2022/08/20 11:23:20;;;;;;;17.23;14.17;;;24.90;99.90;;;;;;5076654;28;21001;-77
2022/08/20 11:25:47;;;;;;;14.80;13.20;;;25.10;99.90;;;;;;5075282;28;20538;-79
2022/08/20 11:28:15;;;;;;;13.70;12.33;;;25.80;99.90;;;;;;5076774;28;20469;-78
2022/08/20 11:30:48;;;;;;;14.17;12.67;;;26.20;99.90;;;;;;5077103;28;20542;-77
2022/08/20 11:33:18;;;;;;;16.63;14.77;;;26.30;99.90;;;;;;5076932;28;20451;-77
2022/08/20 11:35:45;;;;;;;15.20;13.27;;;26.50;99.90;;;;;;5078198;28;20446;-77
2022/08/20 11:38:13;;;;;;;15.07;13.50;;;26.00;99.90;;;;;;5077199;28;20502;-77
2022/08/20 11:40:40;;;;;;;15.43;13.93;;;26.20;99.90;;;;;;5074170;28;20534;-78
2022/08/20 11:43:07;;;;;;;18.73;14.87;;;26.40;99.90;;;;;;5075919;28;21307;-76
2022/08/20 11:45:37;;;;;;;16.13;14.50;;;26.30;99.90;;;;;;5076014;28;20455;-77
2022/08/20 11:48:04;;;;;;;14.67;13.00;;;26.70;99.90;;;;;;5076336;28;20454;-77
2022/08/20 11:50:31;;;;;;;14.50;12.07;;;26.70;99.90;;;;;;5075480;28;20579;-77
2022/08/20 11:52:58;;;;;;;20.20;14.53;;;26.70;99.90;;;;;;5074652;28;20977;-78
2022/08/20 11:55:33;;;;;;;17.70;15.83;;;26.80;99.90;;;;;;5074921;28;20451;-78
2022/08/20 11:58:00;;;;;;;12.43;11.13;;;27.10;99.90;;;;;;5075802;28;20829;-76
2022/08/20 12:00:35;;;;;;;17.60;12.03;;;27.30;99.90;;;;;;5074799;28;20542;-76
2022/08/20 12:03:06;;;;;;;14.50;11.70;;;27.00;99.90;;;;;;5074902;28;20538;-79
2022/08/20 12:05:35;;;;;;;12.80;11.50;;;27.30;99.90;;;;;;5058493;28;20451;-77
2022/08/20 12:08:04;;;;;;;14.27;12.63;;;27.30;99.90;;;;;;5072930;28;20458;-77
2022/08/20 12:10:33;;;;;;;12.07;10.77;;;26.80;99.90;;;;;;5073202;28;20963;-77
2022/08/20 12:12:59;;;;;;;15.80;11.33;;;27.40;99.90;;;;;;5070817;28;20519;-77
2022/08/20 12:15:32;;;;;;;17.53;12.33;;;27.70;99.90;;;;;;5073066;28;20554;-79
2022/08/20 12:18:00;;;;;;;12.50;11.17;;;27.70;99.90;;;;;;5073647;28;20524;-77
2022/08/20 12:20:32;;;;;;;11.17;9.80;;;27.60;99.90;;;;;;5073154;28;20466;-79
2022/08/20 12:22:59;;;;;;;11.90;10.50;;;27.30;99.90;;;;;;5072503;28;20447;-79
2022/08/20 12:25:27;;;;;;;15.00;11.57;;;27.10;99.90;;;;;;5073845;28;20490;-78
2022/08/20 12:27:55;;;;;;;13.57;11.33;;;27.10;99.90;;;;;;5073883;28;20971;-77
2022/08/20 12:30:26;;;;;;;15.70;10.87;;;27.60;99.90;;;;;;5073105;28;20451;-77
2022/08/20 12:32:53;;;;;;;17.10;12.57;;;28.10;99.90;;;;;;5072883;28;20599;-80
2022/08/20 12:35:20;;;;;;;14.37;10.40;;;28.20;99.90;;;;;;5069531;28;20461;-78
2022/08/20 12:37:47;;;;;;;15.30;13.00;;;28.50;99.90;;;;;;5073248;28;20557;-79
2022/08/20 12:40:17;;;;;;;12.63;11.30;;;28.30;99.90;;;;;;5073608;28;20471;-77
2022/08/20 12:42:47;;;;;;;11.13;9.50;;;28.70;99.90;;;;;;5072967;28;20455;-89
2022/08/20 12:45:16;;;;;;;12.57;10.77;;;28.80;99.90;;;;;;5072332;28;20455;-79
2022/08/20 12:47:45;;;;;;;14.07;11.10;;;28.40;99.90;;;;;;5073184;28;20450;-78
2022/08/20 12:50:14;;;;;;;16.53;11.57;;;28.40;99.90;;;;;;5066451;28;20499;-79
2022/08/20 12:52:42;;;;;;;10.43;9.40;;;28.30;99.90;;;;;;5053667;28;20539;-77
2022/08/20 12:55:12;;;;;;;12.97;11.00;;;28.20;99.90;;;;;;5070827;28;20876;-79